Time;durP1;ratioP1;P1;durP2;ratioP2;P2;SDS_P1;SDS_P2;PMS_P1;PMS_P2;Temp;Humidity;BMP_temperature;BMP_pressure;BME280_temperature;BME280_humidity;BME280_pressure;Samples;Min_cycle;Max_cycle;Signal;HPM_P1;HPM_P2
2023/01/05 00:00:15;;;;;;;16.02;11.57;;;;;;;8.13;73.45;97276.22;5052476;28;20051;-66
2023/01/05 00:02:42;;;;;;;20.30;13.50;;;;;;;8.13;73.63;97280.59;5052634;28;20041;-64
2023/01/05 00:05:10;;;;;;;21.77;12.30;;;;;;;8.15;73.72;97273.59;5052555;28;20557;-65
2023/01/05 00:07:37;;;;;;;18.92;12.10;;;;;;;8.16;73.61;97272.72;5052467;28;20055;-63
2023/01/05 00:22:29;;;;;;;27.27;12.13;;;;;;;8.16;73.48;97265.75;5052455;28;20057;-62
2023/01/05 00:24:00;;;;;;;18.77;11.35;;;;;;;8.09;73.46;97264.13;5052234;28;20059;-66
2023/01/05 00:26:27;;;;;;;22.63;11.20;;;;;;;8.07;73.49;97261.56;5052162;28;20045;-63
2023/01/05 00:28:55;;;;;;;12.32;8.98;;;;;;;8.07;73.45;97255.50;5052073;28;20056;-66
2023/01/05 00:31:24;;;;;;;21.42;10.13;;;;;;;8.07;73.28;97252.91;5052156;28;20053;-64
2023/01/05 00:33:51;;;;;;;16.38;11.15;;;;;;;8.07;73.28;97252.91;5052026;28;20140;-64
2023/01/05 00:36:18;;;;;;;21.17;12.38;;;;;;;8.08;73.47;97254.59;5052009;28;20048;-62
2023/01/05 00:38:46;;;;;;;17.45;10.48;;;;;;;8.08;73.55;97244.19;5051939;28;20045;-66
2023/01/05 00:41:13;;;;;;;18.80;10.82;;;;;;;8.09;73.38;97245.91;5051786;28;20045;-64
2023/01/05 00:43:41;;;;;;;14.40;9.25;;;;;;;8.09;73.30;97240.69;5052274;28;20452;-64
2023/01/05 00:46:08;;;;;;;15.73;10.20;;;;;;;8.12;73.39;97237.19;5051579;28;20129;-65
2023/01/05 00:48:37;;;;;;;16.10;9.93;;;;;;;8.08;73.36;97239.84;5051723;28;20639;-65
2023/01/05 00:51:04;;;;;;;15.52;10.10;;;;;;;8.06;73.70;97236.41;5051731;28;20594;-64
2023/01/05 00:53:31;;;;;;;16.40;9.45;;;;;;;8.05;73.56;97239.91;5051767;28;20416;-64
2023/01/05 00:56:00;;;;;;;16.42;10.18;;;;;;;8.06;73.41;97240.72;5051689;28;20041;-64
2023/01/05 00:58:27;;;;;;;13.60;8.18;;;;;;;8.05;73.10;97234.69;5051684;28;20041;-65
2023/01/05 01:00:54;;;;;;;13.02;7.90;;;;;;;8.03;73.20;97239.03;5051649;28;20141;-65
2023/01/05 01:03:21;;;;;;;14.07;8.68;;;;;;;8.03;73.26;97230.34;5051663;28;20129;-63
2023/01/05 01:05:58;;;;;;;16.67;8.80;;;;;;;7.99;73.02;97231.31;5051545;28;20049;-64
2023/01/05 01:08:25;;;;;;;20.75;8.75;;;;;;;7.97;73.17;97228.72;5051436;28;20509;-63
2023/01/05 01:10:52;;;;;;;15.02;9.60;;;;;;;7.91;73.63;97229.69;5051464;28;20051;-62
2023/01/05 01:13:19;;;;;;;15.25;9.20;;;;;;;7.87;73.60;97222.81;5051530;28;20049;-66
2023/01/05 01:15:46;;;;;;;11.52;8.52;;;;;;;7.88;73.61;97229.72;5051477;28;20046;-64
2023/01/05 01:18:14;;;;;;;16.88;9.23;;;;;;;7.88;73.90;97221.03;5051430;28;20045;-63
2023/01/05 01:20:41;;;;;;;15.45;9.70;;;;;;;7.88;73.95;97224.53;5051275;28;20141;-63
2023/01/05 01:23:10;;;;;;;16.75;9.75;;;;;;;7.88;74.05;97221.03;5051276;28;20051;-63
2023/01/05 01:25:38;;;;;;;21.65;11.38;;;;;;;7.87;73.75;97219.34;5051301;28;20469;-63
2023/01/05 01:28:05;;;;;;;15.70;10.98;;;;;;;7.88;73.94;97214.09;5051045;28;20053;-62
2023/01/05 01:30:33;;;;;;;14.77;11.07;;;;;;;7.91;73.82;97208.84;5051184;28;20049;-63
2023/01/05 01:33:00;;;;;;;15.27;9.68;;;;;;;7.88;74.02;97208.88;5051124;28;20045;-63
2023/01/05 01:35:27;;;;;;;14.60;9.45;;;;;;;7.87;74.07;97204.56;5050986;28;20525;-66
2023/01/05 01:37:54;;;;;;;17.15;11.38;;;;;;;7.88;73.76;97195.88;5051121;28;20426;-63
2023/01/05 01:40:23;;;;;;;14.15;8.82;;;;;;;7.84;74.06;97189.88;5051101;28;20061;-62
2023/01/05 01:42:51;;;;;;;12.10;8.23;;;;;;;7.84;74.02;97192.47;5050753;28;20045;-64
2023/01/05 01:45:20;;;;;;;17.85;8.70;;;;;;;7.81;74.03;97184.72;5050902;28;20077;-60
2023/01/05 01:47:52;;;;;;;13.20;9.30;;;;;;;7.79;74.22;97186.47;5050899;27;20482;-64
2023/01/05 01:50:25;;;;;;;16.85;11.13;;;;;;;7.75;74.14;97182.19;5050852;28;20094;-63
2023/01/05 01:52:56;;;;;;;16.63;10.88;;;;;;;7.74;74.31;97175.28;5050807;28;20049;-63
2023/01/05 01:55:27;;;;;;;17.00;9.77;;;;;;;7.76;74.39;97170.88;5050634;28;20097;-63
2023/01/05 01:57:55;;;;;;;17.17;10.00;;;;;;;7.74;74.41;97167.47;5049799;28;20490;-63
2023/01/05 02:00:22;;;;;;;15.55;10.50;;;;;;;7.77;74.45;97166.53;5050829;27;20049;-64
2023/01/05 02:02:53;;;;;;;17.65;10.00;;;;;;;7.78;74.47;97158.72;5050750;28;20045;-65
2023/01/05 02:05:22;;;;;;;;;;;;;;;7.78;74.43;97153.50;5051045;28;20133;-65
2023/01/05 02:07:49;;;;;;;14.70;8.73;;;;;;;7.75;74.61;97160.50;5050572;28;19921;-64
2023/01/05 02:10:19;;;;;;;14.63;8.02;;;;;;;7.75;74.25;97158.75;5050697;28;20132;-65
2023/01/05 02:13:05;;;;;;;17.33;9.38;;;;;;;7.76;74.55;97152.66;5050546;28;20491;-62
2023/01/05 02:15:42;;;;;;;16.10;8.55;;;;;;;7.73;74.16;97146.66;5050451;28;20072;-65
2023/01/05 02:18:27;;;;;;;16.58;9.32;;;;;;;7.76;74.50;97155.25;5050393;28;20102;-65
2023/01/05 02:21:16;;;;;;;15.23;9.60;;;;;;;7.77;74.43;97149.16;5050531;28;20084;-62
2023/01/05 02:24:16;;;;;;;17.02;9.82;;;;;;;7.78;74.55;97142.22;5050337;28;20109;-63
2023/01/05 02:27:21;;;;;;;27.50;8.55;;;;;;;7.79;74.45;97146.53;5050769;28;20053;-65
2023/01/05 02:30:25;;;;;;;11.95;7.65;;;;;;;7.77;74.50;97148.31;5055871;28;20049;-62
2023/01/05 02:32:59;;;;;;;13.07;8.13;;;;;;;7.77;74.45;97143.94;5050258;28;20056;-65
2023/01/05 02:35:34;;;;;;;17.80;7.68;;;;;;;7.73;74.49;97138.84;5050239;28;20049;-63
2023/01/05 02:38:21;;;;;;;14.52;8.10;;;;;;;7.75;74.30;97134.44;5050135;28;20045;-64
2023/01/05 02:40:52;;;;;;;15.23;9.43;;;;;;;7.70;74.32;97129.31;5050060;28;20052;-66
2023/01/05 02:43:20;;;;;;;22.45;11.02;;;;;;;7.67;73.95;97130.22;5049899;28;20083;-66
2023/01/05 02:45:48;;;;;;;18.02;8.70;;;;;;;7.65;74.61;97128.53;5050025;28;20090;-65
2023/01/05 02:48:16;;;;;;;13.45;8.38;;;;;;;7.68;74.42;97125.88;5049935;28;20045;-62
2023/01/05 02:50:50;;;;;;;14.07;8.98;;;;;;;7.66;74.51;97128.53;5050052;28;20064;-66
2023/01/05 02:53:21;;;;;;;11.68;7.93;;;;;;;7.66;74.64;97125.03;5049980;28;20053;-65
2023/01/05 02:55:52;;;;;;;19.70;8.07;;;;;;;7.64;74.72;97130.28;5049880;28;20056;-65
2023/01/05 02:58:23;;;;;;;13.52;8.05;;;;;;;7.64;74.70;97121.59;5049981;28;20049;-66
2023/01/05 03:00:54;;;;;;;13.07;8.57;;;;;;;7.66;74.78;97119.84;5050033;28;20049;-63
2023/01/05 03:03:27;;;;;;;12.65;8.43;;;;;;;7.62;74.91;97108.63;5049930;28;20052;-64
2023/01/05 03:05:59;;;;;;;12.32;8.05;;;;;;;7.67;74.53;97105.91;5049948;28;20215;-63
2023/01/05 03:08:30;;;;;;;13.77;8.43;;;;;;;7.66;74.68;97099.00;5049798;28;20049;-65
2023/01/05 03:13:51;;;;;;;16.50;10.20;;;;;;;7.63;74.59;97096.44;5053423;28;20063;-65
2023/01/05 03:16:25;;;;;;;18.38;12.43;;;;;;;7.63;74.64;97088.63;5053293;28;20094;-66
2023/01/05 03:35:40;;;;;;;13.27;8.40;;;;;;;7.57;75.25;97074.84;5052884;28;20543;-64
2023/01/05 03:38:15;;;;;;;13.95;9.38;;;;;;;7.55;74.97;97073.13;5053038;28;20106;-64
2023/01/05 03:40:44;;;;;;;10.13;7.82;;;;;;;7.57;74.81;97074.00;5052886;28;20387;-63
2023/01/05 03:43:12;;;;;;;13.52;7.93;;;;;;;7.56;75.22;97072.28;5052734;28;20072;-64
2023/01/05 03:45:42;;;;;;;13.05;8.18;;;;;;;7.56;75.23;97059.25;5052829;28;20164;-65
2023/01/05 03:48:10;;;;;;;14.20;9.70;;;;;;;7.57;75.12;97060.97;5052811;28;20140;-64
2023/01/05 03:50:39;;;;;;;10.32;7.18;;;;;;;7.57;75.32;97054.03;5052795;28;20059;-63
2023/01/05 03:53:06;;;;;;;18.83;9.27;;;;;;;7.49;75.20;97049.84;5052716;28;20057;-62
2023/01/05 03:55:34;;;;;;;17.75;9.50;;;;;;;7.35;75.62;97048.34;5052772;28;20045;-63
2023/01/05 03:58:01;;;;;;;14.30;10.07;;;;;;;7.31;76.08;97049.25;5052578;28;20503;-63
2023/01/05 04:00:28;;;;;;;20.25;12.95;;;;;;;7.27;76.38;97039.78;5052600;28;20049;-62
2023/01/05 04:02:55;;;;;;;13.43;8.68;;;;;;;7.33;76.75;97043.16;5052640;28;20097;-63
2023/01/05 04:05:22;;;;;;;14.90;8.25;;;;;;;7.39;76.35;97043.91;5052476;28;20097;-65
2023/01/05 04:07:51;;;;;;;15.18;8.30;;;;;;;7.41;76.14;97042.16;5052425;28;20076;-64
2023/01/05 04:10:18;;;;;;;11.93;7.75;;;;;;;7.41;76.15;97032.59;5052349;28;20052;-64
2023/01/05 04:12:47;;;;;;;12.65;7.90;;;;;;;7.43;75.97;97028.22;5052491;28;20517;-65
2023/01/05 04:15:14;;;;;;;13.43;8.93;;;;;;;7.43;75.77;97027.34;5052450;28;20045;-63
2023/01/05 04:17:41;;;;;;;17.67;9.07;;;;;;;7.45;75.76;97025.59;5052474;28;20049;-65
2023/01/05 04:20:09;;;;;;;14.82;8.93;;;;;;;7.45;75.74;97028.19;5052210;28;20052;-64
2023/01/05 04:22:36;;;;;;;15.32;8.73;;;;;;;7.45;75.99;97030.81;5052195;28;20045;-62
2023/01/05 04:25:06;;;;;;;18.23;9.15;;;;;;;7.46;75.61;97029.91;5052257;28;20132;-62
2023/01/05 04:27:33;;;;;;;15.47;9.23;;;;;;;7.48;75.50;97042.91;5052370;28;20106;-66
2023/01/05 04:30:01;;;;;;;11.90;7.70;;;;;;;7.47;75.71;97039.47;5052449;28;20334;-61
2023/01/05 04:32:28;;;;;;;13.05;8.20;;;;;;;7.46;75.65;97038.59;5052339;28;20131;-63
2023/01/05 04:34:56;;;;;;;14.45;8.90;;;;;;;7.45;75.74;97036.00;5052116;28;20049;-64
2023/01/05 04:37:23;;;;;;;13.93;9.25;;;;;;;7.46;75.33;97035.97;5052231;28;20482;-64
2023/01/05 04:39:50;;;;;;;15.90;9.63;;;;;;;7.41;75.28;97036.94;5052000;28;20135;-64
2023/01/05 04:42:19;;;;;;;17.02;9.48;;;;;;;7.42;75.50;97031.72;5051890;28;20138;-63
2023/01/05 04:44:46;;;;;;;15.02;9.45;;;;;;;7.40;75.59;97025.66;5051951;28;20057;-63
2023/01/05 04:47:14;;;;;;;13.27;9.50;;;;;;;7.37;75.57;97022.28;5051972;28;20079;-65
2023/01/05 04:49:41;;;;;;;16.42;10.27;;;;;;;7.32;75.51;97023.19;5051681;28;20049;-63
2023/01/05 04:52:09;;;;;;;17.80;11.32;;;;;;;7.26;75.90;97028.53;5051890;28;20056;-62
2023/01/05 04:54:36;;;;;;;19.13;12.70;;;;;;;7.17;76.23;97032.13;5051895;28;20045;-62
2023/01/05 04:57:04;;;;;;;16.40;12.25;;;;;;;7.20;76.57;97020.81;5051707;28;20483;-63
2023/01/05 04:59:33;;;;;;;17.23;11.52;;;;;;;7.19;76.54;97026.88;5051784;28;20049;-61
2023/01/05 05:02:00;;;;;;;16.83;10.65;;;;;;;7.18;76.26;97013.03;5051671;28;20052;-65
2023/01/05 05:04:27;;;;;;;16.52;10.30;;;;;;;7.20;75.91;97015.63;5051720;28;20505;-66
2023/01/05 05:06:55;;;;;;;15.80;9.30;;;;;;;7.19;75.65;97026.88;5051694;28;20438;-65
2023/01/05 05:09:22;;;;;;;18.55;11.65;;;;;;;7.19;75.64;97025.16;5051522;28;20053;-65
2023/01/05 05:11:50;;;;;;;15.05;10.20;;;;;;;7.19;75.84;97026.88;5051759;28;20045;-63
2023/01/05 05:14:17;;;;;;;20.00;11.05;;;;;;;7.16;75.72;97030.41;5051462;28;20052;-65
2023/01/05 05:16:46;;;;;;;14.75;10.05;;;;;;;7.16;75.94;97026.94;5051594;28;20105;-61
2023/01/05 05:19:13;;;;;;;18.27;10.00;;;;;;;7.13;76.07;97030.47;5051430;28;20049;-63
2023/01/05 05:21:41;;;;;;;16.52;10.95;;;;;;;7.08;76.75;97029.69;5051465;28;20044;-64
2023/01/05 05:24:09;;;;;;;18.30;12.00;;;;;;;7.05;76.70;97033.19;5051461;28;20049;-61
2023/01/05 05:26:36;;;;;;;17.15;10.70;;;;;;;7.03;77.12;97029.75;5051154;28;20120;-65
2023/01/05 05:29:04;;;;;;;19.48;11.48;;;;;;;7.06;77.26;97031.44;5051071;28;20045;-65
2023/01/05 05:31:32;;;;;;;20.58;11.88;;;;;;;7.10;77.17;97024.47;5051156;28;20049;-64
2023/01/05 05:34:00;;;;;;;22.55;12.63;;;;;;;7.13;76.99;97025.25;5050068;28;20109;-65
2023/01/05 05:36:28;;;;;;;17.88;11.30;;;;;;;7.13;77.35;97025.25;5051215;28;20045;-65
2023/01/05 05:38:57;;;;;;;14.30;10.90;;;;;;;7.15;76.81;97026.09;5051042;28;20068;-63
2023/01/05 05:41:25;;;;;;;16.08;10.85;;;;;;;7.16;76.49;97022.59;5050847;28;20448;-63
2023/01/05 05:43:52;;;;;;;15.20;10.02;;;;;;;7.17;76.66;97005.25;5051356;28;20045;-65
2023/01/05 05:46:20;;;;;;;13.73;10.02;;;;;;;7.16;76.49;97007.00;5051270;27;20128;-61
2023/01/05 05:48:47;;;;;;;16.98;10.93;;;;;;;7.15;76.38;97007.88;5050906;28;20059;-62
2023/01/05 05:51:16;;;;;;;18.02;11.70;;;;;;;7.17;76.75;97010.47;5050901;28;20053;-64
2023/01/05 05:53:43;;;;;;;21.25;11.73;;;;;;;7.19;76.66;97000.88;5050851;28;20546;-65
2023/01/05 05:56:10;;;;;;;19.98;12.15;;;;;;;7.20;76.55;96995.63;5050986;28;20080;-63
2023/01/05 05:58:37;;;;;;;20.52;13.98;;;;;;;7.16;76.78;96993.09;5050798;28;20498;-65
2023/01/05 06:01:05;;;;;;;25.15;14.43;;;;;;;7.05;76.87;96981.16;5050657;28;20105;-65
2023/01/05 06:03:32;;;;;;;26.77;16.17;;;;;;;7.01;77.23;96989.06;5050872;28;20607;-65
2023/01/05 06:06:01;;;;;;;49.22;26.20;;;;;;;7.02;77.67;96990.75;5050669;28;20474;-63
2023/01/05 06:08:31;;;;;;;47.05;23.45;;;;;;;7.12;77.96;96999.25;5050817;28;20108;-63
2023/01/05 06:10:58;;;;;;;43.38;22.08;;;;;;;7.20;78.17;96997.41;5050657;28;20528;-62
2023/01/05 06:13:26;;;;;;;106.68;37.03;;;;;;;7.25;78.05;96997.31;5050552;28;20059;-66
2023/01/05 06:15:53;;;;;;;93.80;34.33;;;;;;;7.30;77.77;96996.34;5050455;28;20041;-62
2023/01/05 06:18:21;;;;;;;64.97;25.60;;;;;;;7.35;77.48;96991.06;5050354;28;20071;-64
2023/01/05 06:20:48;;;;;;;39.42;17.98;;;;;;;7.42;77.38;96991.81;5050646;28;20045;-65
2023/01/05 06:23:15;;;;;;;29.23;15.95;;;;;;;7.45;77.36;96986.53;5050446;28;20108;-65
2023/01/05 06:25:44;;;;;;;25.42;13.93;;;;;;;7.48;76.90;96988.22;5050379;28;20491;-63
2023/01/05 06:28:12;;;;;;;23.40;13.77;;;;;;;7.51;76.91;96989.03;5050437;28;20045;-62
2023/01/05 06:30:39;;;;;;;24.58;15.02;;;;;;;7.66;76.99;96995.72;5050291;28;20131;-65
2023/01/05 06:33:06;;;;;;;21.40;13.25;;;;;;;7.80;76.75;96985.00;5050479;28;20045;-64
2023/01/05 06:35:34;;;;;;;18.40;12.60;;;;;;;7.85;76.11;96979.72;5050283;28;20045;-62
2023/01/05 06:38:01;;;;;;;16.90;10.93;;;;;;;7.82;75.86;96970.22;5050212;28;20045;-67
2023/01/05 06:40:30;;;;;;;20.38;11.73;;;;;;;7.80;76.05;96974.59;5050221;28;20506;-63
2023/01/05 06:42:58;;;;;;;24.58;12.35;;;;;;;7.83;76.17;96982.34;5049808;28;20084;-62
2023/01/05 06:45:26;;;;;;;21.75;12.52;;;;;;;7.92;76.47;96978.69;5049790;28;20132;-63
2023/01/05 06:47:53;;;;;;;22.85;13.35;;;;;;;7.97;76.35;96968.19;5050166;28;20428;-64
2023/01/05 06:50:21;;;;;;;21.05;13.93;;;;;;;8.09;76.15;96965.31;5049941;28;20049;-62
2023/01/05 06:52:48;;;;;;;23.65;13.75;;;;;;;8.70;76.50;96965.78;5050155;28;20045;-63
2023/01/05 06:55:15;;;;;;;20.88;13.15;;;;;;;9.79;71.35;96959.50;5049999;28;20097;-61
2023/01/05 06:57:45;;;;;;;24.88;13.88;;;;;;;10.81;66.57;96960.00;5050044;28;20494;-63
2023/01/05 07:00:16;;;;;;;26.92;14.80;;;;;;;10.99;64.50;96950.72;5050095;28;20045;-63
2023/01/05 07:02:43;;;;;;;24.95;15.60;;;;;;;11.21;63.99;96960.44;5049943;28;20406;-63
2023/01/05 07:05:11;;;;;;;29.10;16.60;;;;;;;11.52;62.38;96967.25;5049960;28;20049;-64
2023/01/05 07:07:38;;;;;;;28.52;15.32;;;;;;;12.28;61.08;96960.19;5049932;28;20101;-66
2023/01/05 07:10:07;;;;;;;20.95;13.55;;;;;;;12.82;58.50;96967.75;5049670;28;20053;-63
2023/01/05 07:12:34;;;;;;;20.40;14.02;;;;;;;13.57;56.04;96967.31;5049840;28;20049;-62
2023/01/05 07:15:02;;;;;;;22.88;13.48;;;;;;;14.58;53.12;96964.56;5049918;28;20531;-66
2023/01/05 07:17:31;;;;;;;21.92;13.95;;;;;;;15.65;49.61;96969.00;5049718;28;20081;-65
2023/01/05 07:19:59;;;;;;;19.33;13.23;;;;;;;15.15;50.39;96964.44;5049808;28;20466;-65
2023/01/05 07:22:27;;;;;;;20.52;13.75;;;;;;;14.33;52.06;96956.03;5049788;28;20101;-63
2023/01/05 07:24:54;;;;;;;22.08;14.70;;;;;;;14.16;52.94;96959.44;5049668;28;20131;-65
2023/01/05 07:27:21;;;;;;;22.08;13.63;;;;;;;14.61;52.31;96949.47;5049591;28;20554;-64
2023/01/05 07:29:49;;;;;;;18.70;13.73;;;;;;;15.12;50.83;96948.81;5049478;28;20062;-63
2023/01/05 07:32:16;;;;;;;20.90;13.43;;;;;;;15.40;50.27;96938.66;5049533;28;20049;-66
2023/01/05 07:34:46;;;;;;;22.05;13.50;;;;;;;15.81;48.79;96933.94;5049696;28;20078;-64
2023/01/05 07:37:14;;;;;;;19.30;13.43;;;;;;;15.68;49.07;96936.38;5049481;28;20211;-63
2023/01/05 07:39:41;;;;;;;19.85;12.82;;;;;;;15.28;49.62;96937.47;5049399;28;20305;-64
2023/01/05 07:42:09;;;;;;;18.95;13.73;;;;;;;14.68;50.85;96936.84;5049227;28;20101;-63
2023/01/05 07:44:36;;;;;;;22.65;13.52;;;;;;;14.42;51.88;96928.41;5049573;28;20049;-61
2023/01/05 07:47:08;;;;;;;18.95;13.65;;;;;;;14.80;51.57;96927.53;5049445;28;20085;-62
2023/01/05 07:49:36;;;;;;;20.92;14.02;;;;;;;15.38;51.21;96927.34;5049473;28;20137;-63
2023/01/05 07:52:07;;;;;;;22.95;14.40;;;;;;;16.26;48.47;96927.13;5049332;28;20041;-66
2023/01/05 07:54:34;;;;;;;;;;;;;;;17.06;46.59;96933.25;5049874;28;20079;-64
2023/01/05 07:57:01;;;;;;;25.30;14.00;;;;;;;18.36;43.71;96917.63;5051662;28;19973;-64
2023/01/05 07:59:29;;;;;;;16.73;13.10;;;;;;;19.10;41.79;96914.66;5052595;28;20067;-65
2023/01/05 08:01:57;;;;;;;18.42;13.45;;;;;;;19.55;40.34;96916.94;5052868;28;20053;-64
2023/01/05 08:04:25;;;;;;;20.50;13.38;;;;;;;20.23;38.75;96917.66;5052571;28;20136;-62
2023/01/05 08:06:53;;;;;;;19.42;12.93;;;;;;;20.79;37.68;96914.47;5052769;28;20053;-66
2023/01/05 08:12:06;;;;;;;18.30;13.70;;;;;;;19.08;41.06;96915.72;5052510;28;20056;-63
2023/01/05 08:14:33;;;;;;;21.15;13.90;;;;;;;19.26;40.71;96913.63;5052402;28;20170;-65
2023/01/05 08:17:01;;;;;;;18.50;13.13;;;;;;;19.67;39.04;96909.94;5052433;28;20045;-65
2023/01/05 08:19:29;;;;;;;19.48;13.35;;;;;;;20.67;38.06;96902.09;5052594;28;20072;-64
2023/01/05 08:22:02;;;;;;;17.55;12.93;;;;;;;20.29;37.71;96899.44;5052330;27;20507;-63
2023/01/05 08:24:30;;;;;;;17.88;13.13;;;;;;;19.47;38.51;96882.13;5052169;28;20052;-65
2023/01/05 08:26:58;;;;;;;18.13;12.88;;;;;;;19.38;39.98;96878.28;5052357;28;20099;-66
2023/01/05 08:29:26;;;;;;;18.75;12.23;;;;;;;20.05;38.57;96871.06;5052265;28;20436;-61
2023/01/05 08:31:53;;;;;;;23.20;12.68;;;;;;;20.29;37.64;96875.56;5052246;28;20102;-63
2023/01/05 08:34:21;;;;;;;20.08;13.25;;;;;;;19.69;37.93;96872.69;5052105;28;20462;-61
2023/01/05 08:36:48;;;;;;;18.98;14.45;;;;;;;19.06;39.35;96868.06;5052051;28;20053;-64
2023/01/05 08:39:16;;;;;;;19.15;13.57;;;;;;;19.13;39.02;96865.88;5052150;28;20048;-65
2023/01/05 08:41:44;;;;;;;19.33;13.82;;;;;;;20.00;37.64;96859.03;5051787;28;20517;-62
2023/01/05 08:44:13;;;;;;;17.10;12.02;;;;;;;18.89;38.70;96855.94;5052091;28;20486;-64
2023/01/05 08:46:41;;;;;;;14.50;11.82;;;;;;;18.27;40.02;96853.72;5052089;28;20056;-65
2023/01/05 08:49:09;;;;;;;20.40;13.75;;;;;;;17.43;41.67;96853.63;5051966;28;20041;-62
2023/01/05 08:51:39;;;;;;;18.40;13.05;;;;;;;17.00;42.50;96846.41;5051730;28;20119;-64
2023/01/05 08:54:08;;;;;;;21.02;13.43;;;;;;;17.09;42.78;96837.97;5052113;28;20045;-65
2023/01/05 08:56:36;;;;;;;17.15;11.90;;;;;;;16.95;43.26;96824.72;5051843;28;20053;-64
2023/01/05 08:59:07;;;;;;;15.95;11.52;;;;;;;17.08;42.76;96832.78;5051717;28;20486;-66
2023/01/05 09:01:35;;;;;;;16.42;12.30;;;;;;;16.57;43.61;96826.88;5051672;28;20045;-66
2023/01/05 09:04:04;;;;;;;21.17;15.25;;;;;;;16.68;44.24;96824.44;5051729;28;20398;-66
2023/01/05 09:06:32;;;;;;;27.70;14.05;;;;;;;16.78;43.77;96822.13;5051377;28;20127;-62
2023/01/05 09:09:00;;;;;;;18.02;13.07;;;;;;;16.65;43.81;96821.97;5051520;28;20052;-65
2023/01/05 09:11:27;;;;;;;18.48;13.23;;;;;;;16.24;45.07;96817.31;5051471;28;20045;-63
2023/01/05 09:13:57;;;;;;;17.45;13.15;;;;;;;15.90;45.67;96817.38;5051554;28;20053;-61
2023/01/05 09:16:29;;;;;;;20.42;13.90;;;;;;;15.54;47.74;96814.88;5051399;28;20501;-63
2023/01/05 09:18:57;;;;;;;18.52;13.57;;;;;;;15.04;48.50;96811.34;5051414;28;20648;-63
2023/01/05 09:21:25;;;;;;;18.55;13.15;;;;;;;14.94;48.74;96803.09;5051482;28;20053;-62
2023/01/05 09:23:52;;;;;;;20.35;14.02;;;;;;;14.68;49.30;96799.09;5051383;28;20541;-65
2023/01/05 09:26:19;;;;;;;21.25;14.63;;;;;;;14.25;50.35;96798.53;5051336;28;20136;-64
2023/01/05 09:28:46;;;;;;;20.35;15.38;;;;;;;14.18;50.35;96798.91;5051203;28;20592;-66
2023/01/05 09:31:16;;;;;;;19.23;13.55;;;;;;;14.07;51.65;96787.13;5051197;28;20052;-64
2023/01/05 09:33:45;;;;;;;24.63;16.23;;;;;;;13.82;52.46;96787.44;5051234;28;20459;-64
2023/01/05 09:36:14;;;;;;;24.48;16.00;;;;;;;13.90;52.38;96780.91;5051336;28;20406;-64
2023/01/05 09:38:41;;;;;;;19.88;14.90;;;;;;;13.90;52.13;96777.41;5051096;28;20056;-66
2023/01/05 09:41:17;;;;;;;17.83;13.60;;;;;;;14.01;51.91;96772.50;5051096;28;20051;-63
2023/01/05 09:43:48;;;;;;;20.55;14.98;;;;;;;14.03;51.68;96761.91;5050912;28;20100;-62
2023/01/05 09:46:18;;;;;;;21.23;14.60;;;;;;;14.08;51.96;96759.03;5051014;28;20401;-62
2023/01/05 09:48:51;;;;;;;23.08;15.25;;;;;;;14.19;51.90;96748.84;5051013;28;20454;-66
2023/01/05 09:51:18;;;;;;;23.85;14.65;;;;;;;14.20;51.34;96739.16;5050915;28;20491;-65
2023/01/05 09:53:46;;;;;;;22.15;15.15;;;;;;;14.05;51.48;96730.28;5051016;28;20053;-64
2023/01/05 09:56:25;;;;;;;19.50;14.18;;;;;;;13.73;52.23;96725.66;5050913;28;20505;-66
2023/01/05 09:58:56;;;;;;;19.55;14.30;;;;;;;13.41;52.78;96723.56;5050861;28;20133;-62
2023/01/05 10:01:23;;;;;;;;;;;;;;;13.22;53.39;96721.78;5051218;28;20056;-66
2023/01/05 10:04:00;;;;;;;22.50;13.75;;;;;;;13.16;54.40;96703.69;5050765;28;20019;-63
2023/01/05 10:06:31;;;;;;;24.90;16.55;;;;;;;13.16;54.53;96693.19;5050565;28;20049;-62
2023/01/05 10:08:59;;;;;;;25.92;16.92;;;;;;;13.37;54.06;96678.19;5050725;28;20041;-64
2023/01/05 10:14:28;;;;;;;21.73;14.73;;;;;;;13.50;52.44;96669.75;5050731;28;20528;-63
2023/01/05 10:16:56;;;;;;;19.83;15.32;;;;;;;13.33;54.00;96660.03;5050526;28;20414;-65
2023/01/05 10:19:25;;;;;;;27.23;14.48;;;;;;;12.99;54.33;96665.06;5049632;28;20409;-66
2023/01/05 10:22:05;;;;;;;21.17;14.55;;;;;;;13.08;54.28;96659.41;5050447;28;20068;-64
2023/01/05 10:24:45;;;;;;;18.63;13.80;;;;;;;13.15;53.61;96662.59;5050569;28;20057;-65
2023/01/05 10:27:19;;;;;;;20.38;14.95;;;;;;;13.11;54.04;96647.91;5050486;28;20056;-65
2023/01/05 10:29:48;;;;;;;25.30;16.13;;;;;;;13.04;54.60;96654.34;5050307;28;20127;-62
2023/01/05 10:32:24;;;;;;;23.42;16.08;;;;;;;13.05;54.41;96640.28;5050114;28;20490;-64
2023/01/05 10:35:08;;;;;;;19.20;13.38;;;;;;;13.30;53.94;96647.88;5050256;28;20048;-65
2023/01/05 10:37:56;;;;;;;20.42;13.43;;;;;;;13.43;53.49;96645.53;5050391;28;20095;-64
2023/01/05 10:40:32;;;;;;;17.02;13.15;;;;;;;13.49;53.52;96640.00;5050003;28;20507;-64
2023/01/05 10:43:22;;;;;;;18.70;13.75;;;;;;;13.67;52.70;96639.19;5050299;28;20291;-65
2023/01/05 10:45:50;;;;;;;21.00;13.98;;;;;;;13.47;53.25;96644.47;5050199;28;20092;-63
2023/01/05 10:48:23;;;;;;;18.92;13.23;;;;;;;13.47;53.25;96646.22;5050089;28;20059;-64
2023/01/05 10:50:54;;;;;;;19.17;14.43;;;;;;;13.46;52.53;96639.28;5049949;28;20152;-63
2023/01/05 10:53:25;;;;;;;25.90;15.38;;;;;;;13.37;51.71;96633.53;5049955;28;20045;-63
2023/01/05 10:55:57;;;;;;;;;;;;;;;13.24;52.49;96625.38;5050504;28;20049;-65
2023/01/05 10:58:26;;;;;;;18.55;14.07;;;;;;;13.31;52.09;96619.84;5049892;28;19920;-64
2023/01/05 11:00:58;;;;;;;19.00;14.40;;;;;;;13.29;51.75;96617.28;5049968;28;20045;-66
2023/01/05 11:03:33;;;;;;;17.00;13.70;;;;;;;13.25;52.57;96608.69;5049859;28;20392;-63
2023/01/05 11:06:03;;;;;;;16.88;13.05;;;;;;;13.28;52.46;96605.09;5049812;28;20490;-64
2023/01/05 11:08:32;;;;;;;17.77;13.23;;;;;;;13.29;52.79;96592.78;5049789;28;20057;-65
2023/01/05 11:11:01;;;;;;;19.05;14.15;;;;;;;13.34;51.38;96586.38;5049715;28;20053;-64
2023/01/05 11:13:34;;;;;;;21.10;14.30;;;;;;;13.17;52.36;96588.97;5049879;28;20136;-64
2023/01/05 11:16:08;;;;;;;22.33;14.35;;;;;;;13.09;52.78;96590.19;5049560;28;20048;-65
2023/01/05 11:18:42;;;;;;;21.88;13.05;;;;;;;13.27;52.53;96587.59;5049779;28;20084;-66
2023/01/05 11:21:16;;;;;;;17.67;13.00;;;;;;;13.29;51.97;96580.50;5049658;28;20045;-62
2023/01/05 11:23:46;;;;;;;17.10;12.27;;;;;;;13.26;51.71;96573.63;5049717;28;20113;-65
2023/01/05 11:26:29;;;;;;;14.27;11.55;;;;;;;13.06;52.32;96574.56;5049812;28;20049;-66
2023/01/05 11:29:17;;;;;;;20.00;11.95;;;;;;;13.01;52.12;96563.47;5049946;28;20049;-66
2023/01/05 11:31:48;;;;;;;21.25;13.82;;;;;;;13.00;52.24;96559.09;5049663;28;20105;-61
2023/01/05 11:34:33;;;;;;;22.27;13.75;;;;;;;12.91;53.32;96557.78;5053137;28;20060;-65
2023/01/05 11:37:07;;;;;;;18.55;13.23;;;;;;;12.89;53.32;96552.59;5053043;28;20413;-63
2023/01/05 11:39:42;;;;;;;18.15;13.60;;;;;;;13.00;53.10;96553.88;5052925;28;20506;-66
2023/01/05 11:42:17;;;;;;;18.27;13.05;;;;;;;13.12;53.13;96545.41;5052845;28;20132;-63
2023/01/05 11:44:48;;;;;;;15.45;12.32;;;;;;;13.13;51.81;96539.22;5053063;28;20053;-62
2023/01/05 11:47:26;;;;;;;;;;;;;;;13.20;52.31;96541.56;5053402;28;20040;-65
2023/01/05 11:50:17;;;;;;;17.63;13.38;;;;;;;13.23;52.90;96544.91;5052786;28;20360;-65
2023/01/05 11:52:48;;;;;;;19.92;14.27;;;;;;;13.24;52.04;96530.81;5052809;28;20171;-66
2023/01/05 11:55:30;;;;;;;18.60;14.02;;;;;;;13.23;51.74;96526.50;5052804;28;20081;-65
2023/01/05 11:58:14;;;;;;;19.13;13.18;;;;;;;13.20;52.37;96528.41;5052716;28;20108;-64
2023/01/05 12:01:06;;;;;;;18.17;12.65;;;;;;;13.16;52.97;96521.63;5052684;28;20136;-64
2023/01/05 12:03:55;;;;;;;17.55;12.85;;;;;;;13.13;52.50;96520.00;5052552;28;20053;-63
2023/01/05 12:06:32;;;;;;;17.92;14.05;;;;;;;12.97;52.98;96510.22;5052613;28;20041;-65
2023/01/05 12:09:06;;;;;;;20.15;14.63;;;;;;;12.93;52.99;96513.06;5052500;28;20072;-63
2023/01/05 12:11:44;;;;;;;15.73;12.10;;;;;;;13.00;52.51;96506.59;5052330;28;20056;-65
2023/01/05 12:14:31;;;;;;;15.60;12.20;;;;;;;12.93;53.17;96510.44;5052522;28;20379;-65